Time;durP1;ratioP1;P1;durP2;ratioP2;P2;SDS_P1;SDS_P2;PMS_P1;PMS_P2;Temp;Humidity;BMP_temperature;BMP_pressure;BME280_temperature;BME280_humidity;BME280_pressure;Samples;Min_cycle;Max_cycle;Signal;HPM_P1;HPM_P2
2023/02/21 02:14:07;;;;;;;;;54.33;45.00;;;;;6.68;64.15;102061.94;1992010;27;3596047;-74
2023/02/21 02:15:33;;;;;;;;;60.67;48.00;;;;;6.67;64.48;102058.44;2022341;28;3617273;-74
2023/02/21 02:17:02;;;;;;;;;55.67;45.67;;;;;6.66;64.22;102059.34;1999772;27;3576262;-74
2023/02/21 02:18:35;;;;;;;;;56.33;46.00;;;;;6.66;63.99;102059.34;2023283;28;3600604;-74
2023/02/21 02:20:20;;;;;;;;;55.67;45.33;;;;;6.64;64.12;102056.69;1998478;28;3603380;-74
2023/02/21 02:21:54;;;;;;;;;56.00;45.00;;;;;6.64;64.31;102061.06;1999147;28;3603727;-74
2023/02/21 02:23:43;;;;;;;;;48.33;39.67;;;;;6.63;64.56;102060.19;2023788;27;3588772;-74
2023/02/21 02:25:02;;;;;;;;;61.00;47.67;;;;;6.62;64.14;102061.03;2023033;28;3614864;-74
2023/02/21 02:26:35;;;;;;;;;59.33;45.00;;;;;6.62;64.22;102062.78;1996608;28;3609964;-74
2023/02/21 02:27:55;;;;;;;;;58.00;44.00;;;;;6.62;64.13;102057.56;1996080;28;3608569;-74
2023/02/21 02:29:42;;;;;;;;;60.33;45.33;;;;;6.61;63.80;102055.81;1999352;27;3633038;-74
2023/02/21 02:31:03;;;;;;;;;55.00;44.00;;;;;6.59;64.07;102049.72;2000805;28;3598184;-74
2023/02/21 02:32:26;;;;;;;;;59.33;47.00;;;;;6.58;63.87;102046.22;2018014;28;3601269;-74
2023/02/21 02:34:06;;;;;;;;;59.67;48.33;;;;;6.57;64.30;102049.69;2017682;28;3597147;-74
2023/02/21 02:35:26;;;;;;;;;59.33;47.00;;;;;6.55;64.07;102051.44;1999358;27;3604406;-74
2023/02/21 02:36:52;;;;;;;;;59.00;44.33;;;;;6.54;64.48;102044.47;1999178;27;3614845;-74
2023/02/21 02:38:24;;;;;;;;;56.67;45.33;;;;;6.55;64.00;102042.72;1999133;27;3606496;-74
2023/02/21 02:40:03;;;;;;;;;63.67;48.67;;;;;6.54;64.05;102044.47;1990743;28;3610698;-74
2023/02/21 02:41:41;;;;;;;;;59.33;47.00;;;;;6.53;63.96;102037.50;1990794;28;3588767;-74
2023/02/21 02:43:00;;;;;;;;;63.67;47.67;;;;;6.51;64.06;102027.03;2015671;28;3626303;-74
2023/02/21 02:44:39;;;;;;;;;59.67;45.00;;;;;6.51;64.21;102031.38;1998625;28;3632536;-74
2023/02/21 02:46:10;;;;;;;;;62.33;48.67;;;;;6.50;64.45;102025.28;1998007;28;3625256;-74
2023/02/21 02:47:28;;;;;;;;;62.67;47.33;;;;;6.50;64.14;102025.28;1999171;28;3626274;-74
2023/02/21 02:48:45;;;;;;;;;57.00;44.33;;;;;6.50;64.02;102027.03;1999663;27;3614845;-74
2023/02/21 02:49:58;;;;;;;;;50.67;41.67;;;;;6.48;64.33;102024.41;2000539;28;3588800;-74
2023/02/21 02:51:12;;;;;;;;;60.00;47.67;;;;;6.48;64.02;102021.81;2022727;28;3607557;-74
2023/02/21 02:52:24;;;;;;;;;62.33;49.67;;;;;6.47;63.91;102022.66;1998402;28;3625219;-74
2023/02/21 02:53:36;;;;;;;;;61.67;49.67;;;;;6.48;64.38;102031.38;2014082;27;3623659;-74
2023/02/21 02:55:03;;;;;;;;;64.00;49.67;;;;;6.47;64.19;102022.66;2013840;28;3632891;-74
2023/02/21 02:56:16;;;;;;;;;61.67;50.00;;;;;6.46;64.08;102026.16;1999908;28;3621185;-74
2023/02/21 02:57:37;;;;;;;;;62.00;47.33;;;;;6.46;64.00;102026.16;1998610;28;3627331;-74
2023/02/21 02:58:51;;;;;;;;;60.33;49.00;;;;;6.45;64.09;102024.38;1999782;28;3610678;-74
2023/02/21 03:00:05;;;;;;;;;61.00;50.00;;;;;6.44;64.00;102025.28;1998536;27;3605435;-74
2023/02/21 03:01:47;;;;;;;;;59.67;48.33;;;;;6.44;64.33;102020.03;1998210;28;3598179;-74
2023/02/21 03:03:52;;;;;;;;;64.00;49.67;;;;;6.44;64.09;102021.78;2015015;28;3627676;-74
2023/02/21 03:05:39;;;;;;;;;56.67;45.67;;;;;6.41;64.42;102017.41;1983770;28;3595038;-74
2023/02/21 03:07:22;;;;;;;;;57.67;46.00;;;;;6.39;63.98;102019.16;1991342;28;3592940;-74
2023/02/21 03:08:50;;;;;;;;;62.00;47.00;;;;;6.38;64.45;102012.16;2006505;28;3615929;-74
2023/02/21 03:10:07;;;;;;;;;59.00;47.33;;;;;6.38;64.04;102009.53;1981989;28;3614845;-74
2023/02/21 03:11:22;;;;;;;;;62.67;48.33;;;;;6.37;63.88;102010.44;1991437;28;3631499;-74
2023/02/21 03:12:44;;;;;;;;;58.33;45.67;;;;;6.37;64.12;102011.28;1998839;28;3615163;-74
2023/02/21 03:14:12;;;;;;;;;64.00;49.00;;;;;6.36;64.27;102000.84;1999060;27;3629396;-74
2023/02/21 03:15:31;;;;;;;;;66.00;51.00;;;;;6.35;64.45;102002.56;1997389;28;3624535;-74
2023/02/21 03:16:50;;;;;;;;;64.67;51.00;;;;;6.35;64.22;101993.84;2000242;28;3609593;-74
2023/02/21 03:18:35;;;;;;;;;63.33;49.00;;;;;6.34;64.29;101997.34;1998778;27;3618304;-74
2023/02/21 03:19:49;;;;;;;;;64.33;50.00;;;;;6.34;64.42;102005.19;1995373;28;3608598;-74
2023/02/21 03:21:06;;;;;;;;;63.00;49.50;;;;;6.33;64.39;101999.09;1999389;27;2875307;-74
2023/02/21 03:22:20;;;;;;;;;66.50;52.50;;;;;6.33;64.53;102003.41;2000609;27;2856580;-74
2023/02/21 03:23:34;;;;;;;;;69.50;52.00;;;;;6.32;64.35;101997.34;1998930;27;2885676;-74
2023/02/21 03:24:48;;;;;;;;;62.33;49.00;;;;;6.31;64.13;101998.22;1998247;28;3617943;-74
2023/02/21 03:26:05;;;;;;;;;64.67;51.00;;;;;6.32;64.14;102006.91;1998947;27;3621079;-74
2023/02/21 03:27:20;;;;;;;;;63.33;49.00;;;;;6.30;64.16;102009.50;2006109;27;3611717;-74
2023/02/21 03:28:34;;;;;;;;;66.00;53.00;;;;;6.29;64.12;102006.03;2029280;27;3625228;-74
2023/02/21 03:29:46;;;;;;;;;50.33;38.67;;;;;6.29;64.37;102008.66;2000399;27;3601311;-74
2023/02/21 03:30:59;;;;;;;;;60.33;48.00;;;;;6.29;64.13;102005.16;2024762;27;3619056;-74
2023/02/21 03:33:27;;;;;;;;;68.50;52.00;;;;;6.26;64.35;102000.78;2001503;28;2869026;-74
2023/02/21 03:34:41;;;;;;;;;53.00;42.33;;;;;6.27;64.11;101999.06;2014016;27;3602290;-74
2023/02/21 03:35:53;;;;;;;;;68.33;53.00;;;;;6.26;64.43;102003.41;2023931;28;3624188;-74
2023/02/21 03:37:18;;;;;;;;;66.20;51.40;;;;;6.25;64.50;101991.19;2010410;28;3637692;-74
2023/02/21 03:38:30;;;;;;;;;64.33;50.67;;;;;6.24;64.50;101999.91;2000506;28;3609626;-74
2023/02/21 03:39:41;;;;;;;;;64.67;50.00;;;;;6.25;64.27;102000.75;1999573;28;3628416;-74
2023/02/21 03:40:52;;;;;;;;;65.80;52.00;;;;;6.24;64.56;101999.03;2004534;27;2871078;-74
2023/02/21 03:42:04;;;;;;;;;63.00;50.67;;;;;6.24;64.51;101996.44;2040666;27;3609558;-74
2023/02/21 03:43:16;;;;;;;;;65.20;52.60;;;;;6.23;64.49;101997.28;2018486;28;3615825;-74
2023/02/21 03:44:27;;;;;;;;;64.20;49.20;;;;;6.23;64.29;101998.16;2001867;28;2870005;-74
2023/02/21 03:45:39;;;;;;;;;67.20;53.60;;;;;6.21;64.38;101992.06;2038957;28;3623127;-74
2023/02/21 03:46:50;;;;;;;;;70.20;54.20;;;;;6.22;64.42;101998.16;2028427;28;2873169;-74
2023/02/21 03:48:02;;;;;;;;;68.00;53.00;;;;;6.21;64.41;101993.78;2043422;27;3635624;-74
2023/02/21 03:49:14;;;;;;;;;70.67;53.33;;;;;6.21;64.31;101993.78;2025851;28;3637057;-74
2023/02/21 03:50:26;;;;;;;;;65.00;50.00;;;;;6.19;64.45;101996.41;2017885;27;3623161;-74
2023/02/21 03:51:38;;;;;;;;;67.67;52.67;;;;;6.19;64.44;101985.97;2012621;27;3623171;-74
2023/02/21 03:52:50;;;;;;;;;65.00;51.33;;;;;6.19;64.52;101992.06;2017750;27;3616923;-74
2023/02/21 03:54:02;;;;;;;;;69.33;51.67;;;;;6.18;64.23;101989.41;2011600;28;3648157;-74
2023/02/21 03:55:15;;;;;;;;;69.67;53.67;;;;;6.18;64.28;101979.84;2015510;28;3625223;-74
2023/02/21 03:56:25;;;;;;;;;67.00;49.50;;;;;6.17;64.05;101978.09;1997146;27;2894017;-74
2023/02/21 03:57:37;;;;;;;;;68.33;53.00;;;;;6.16;64.40;101980.72;2012598;28;3623191;-74
2023/02/21 03:58:49;;;;;;;;;66.80;53.20;;;;;6.16;64.08;101978.97;2020398;27;3625241;-74
2023/02/21 04:00:02;;;;;;;;;57.33;48.67;;;;;6.16;64.28;101975.50;2009206;28;3595058;-74
2023/02/21 04:01:14;;;;;;;;;70.20;55.60;;;;;6.14;64.41;101978.09;2032232;28;3633529;-74
2023/02/21 04:02:26;;;;;;;;;69.00;51.67;;;;;6.14;64.32;101970.28;1998648;28;3635660;-74
2023/02/21 04:03:38;;;;;;;;;62.67;50.33;;;;;6.13;64.36;101972.84;1999771;27;3614179;-74
2023/02/21 04:04:50;;;;;;;;;66.20;52.60;;;;;6.13;64.51;101976.34;2010848;28;3615828;-74
2023/02/21 04:06:02;;;;;;;;;69.00;53.33;;;;;6.12;64.31;101974.63;2016442;28;3616920;-74
2023/02/21 04:07:16;;;;;;;;;68.67;52.00;;;;;6.13;64.14;101972.84;1999741;28;3624184;-74
2023/02/21 04:08:27;;;;;;;;;71.50;54.00;;;;;6.11;64.60;101977.19;2000847;27;2869024;-74
2023/02/21 04:09:39;;;;;;;;;69.60;54.00;;;;;6.11;64.39;101969.38;2018285;27;3629372;-74
2023/02/21 04:10:51;;;;;;;;;62.40;49.60;;;;;6.11;64.17;101971.97;2043442;28;3597079;-74
2023/02/21 04:12:03;;;;;;;;;72.40;53.80;;;;;6.09;64.64;101971.97;2043585;28;3634564;-74
2023/02/21 04:13:15;;;;;;;;;65.33;52.00;;;;;6.08;64.50;101971.09;2001776;28;3618995;-74
2023/02/21 04:14:27;;;;;;;;;62.67;49.00;;;;;6.08;64.49;101970.22;2016146;27;3604393;-74
2023/02/21 04:15:39;;;;;;;;;75.00;56.00;;;;;6.06;64.50;101967.56;2014952;27;3620042;-74
2023/02/21 04:16:51;;;;;;;;;71.80;54.20;;;;;6.06;64.73;101966.69;2020729;28;3627788;-74
2023/02/21 04:18:03;;;;;;;;;64.67;51.00;;;;;6.06;64.31;101970.19;2001486;27;3607865;-74
2023/02/21 04:19:15;;;;;;;;;67.00;50.67;;;;;6.05;64.55;101973.66;2015057;27;3619338;-74
2023/02/21 04:20:27;;;;;;;;;63.33;51.00;;;;;6.03;64.55;101970.16;2017427;27;3624184;-74
2023/02/21 04:21:39;;;;;;;;;69.60;53.20;;;;;6.03;64.57;101972.78;2019056;27;3632498;-74
2023/02/21 04:22:51;;;;;;;;;67.20;51.80;;;;;6.03;64.37;101975.38;2018784;28;3631472;-74
2023/02/21 04:24:03;;;;;;;;;69.20;53.80;;;;;6.03;64.34;101970.16;2018416;27;3608520;-74
2023/02/21 04:25:15;;;;;;;;;70.60;56.00;;;;;6.02;64.51;101984.09;2010585;28;3625250;-74
2023/02/21 04:26:28;;;;;;;;;70.00;54.00;;;;;6.02;64.37;101973.66;2013281;28;3629411;-74
2023/02/21 04:27:40;;;;;;;;;63.00;51.00;;;;;6.01;64.31;101984.94;2000578;28;3611700;-74
2023/02/21 04:28:52;;;;;;;;;68.40;54.00;;;;;6.00;64.43;101975.34;2041516;27;3625232;-74
2023/02/21 04:30:04;;;;;;;;;69.33;54.00;;;;;6.00;64.48;101974.50;2012560;28;3641880;-74
2023/02/21 04:31:16;;;;;;;;;70.00;55.50;;;;;6.00;64.52;101985.78;2000886;27;2871109;-74
2023/02/21 04:32:27;;;;;;;;;66.33;53.00;;;;;5.98;64.44;101979.69;1998957;27;3609588;-74
2023/02/21 04:33:39;;;;;;;;;65.33;52.00;;;;;5.98;64.50;101982.31;2015452;28;3614161;-74
2023/02/21 04:34:52;;;;;;;;;68.33;53.33;;;;;5.98;64.18;101969.25;2015271;28;3617964;-74
2023/02/21 04:36:04;;;;;;;;;69.33;55.00;;;;;5.96;64.65;101966.66;1998808;28;3625616;-74
2023/02/21 04:37:14;;;;;;;;;69.00;53.00;;;;;5.97;64.52;101975.34;2001751;27;2875283;-74
2023/02/21 04:38:27;;;;;;;;;72.60;55.20;;;;;5.96;64.35;101974.47;2017573;27;3641861;-74
2023/02/21 04:39:38;;;;;;;;;70.00;54.20;;;;;5.95;64.50;101967.50;2014398;28;3610616;-74
2023/02/21 04:40:51;;;;;;;;;69.67;55.67;;;;;5.95;64.24;101977.94;2013654;28;3625253;-74
2023/02/21 04:42:02;;;;;;;;;69.00;55.00;;;;;5.95;64.39;101977.09;2005855;28;3609643;-74
2023/02/21 04:43:15;;;;;;;;;70.40;53.80;;;;;5.95;64.30;101982.31;2014738;27;3629405;-74
2023/02/21 04:44:26;;;;;;;;;66.60;53.20;;;;;5.94;64.71;101983.16;2004256;28;3625190;-74
2023/02/21 04:45:38;;;;;;;;;71.00;53.33;;;;;5.95;64.22;101982.31;2015714;28;3635044;-74
2023/02/21 04:46:51;;;;;;;;;71.00;53.67;;;;;5.92;64.56;101977.06;2016341;27;3611700;-74
2023/02/21 04:48:03;;;;;;;;;72.40;55.80;;;;;5.93;64.60;101973.56;2014678;28;3632521;-74
2023/02/21 04:49:15;;;;;;;;;72.20;56.60;;;;;5.91;64.41;101975.31;2014753;28;3627326;-74
2023/02/21 04:50:27;;;;;;;;;68.60;53.20;;;;;5.91;64.62;101981.41;2015877;28;3615818;-74
2023/02/21 04:51:39;;;;;;;;;70.00;54.00;;;;;5.91;64.43;101977.91;1997573;28;3620017;-74
2023/02/21 04:52:51;;;;;;;;;68.00;54.00;;;;;5.89;64.29;101977.91;2015116;27;3621087;-74
2023/02/21 04:54:03;;;;;;;;;76.33;56.67;;;;;5.89;64.59;101982.25;2015055;27;3630489;-74
2023/02/21 04:55:15;;;;;;;;;70.60;56.00;;;;;5.89;64.58;101979.63;2017859;28;3611652;-74
2023/02/21 04:56:27;;;;;;;;;70.40;54.00;;;;;5.87;64.26;101977.03;2003411;28;3644973;-74
2023/02/21 04:57:39;;;;;;;;;61.00;50.00;;;;;5.88;64.59;101983.13;1993275;28;3609620;-74
2023/02/21 04:58:51;;;;;;;;;66.33;53.00;;;;;5.87;64.69;101978.75;2015478;28;3613779;-74
2023/02/21 05:00:06;;;;;;;;;67.67;53.00;;;;;5.88;64.21;101985.75;2014926;27;3620429;-74
2023/02/21 05:01:18;;;;;;;;;70.00;55.67;;;;;5.86;64.29;101983.09;1998770;28;3621045;-74
2023/02/21 05:02:30;;;;;;;;;71.00;53.67;;;;;5.85;64.64;101982.22;1990742;28;3644082;-74
2023/02/21 05:03:42;;;;;;;;;67.40;51.20;;;;;5.84;64.35;101980.50;2020129;28;3631478;-74
2023/02/21 05:04:54;;;;;;;;;68.60;53.60;;;;;5.83;64.48;101978.72;2007519;28;3629392;-74
2023/02/21 05:06:06;;;;;;;;;71.00;55.67;;;;;5.83;64.18;101983.94;2016519;28;3629411;-74
2023/02/21 05:07:18;;;;;;;;;71.00;54.00;;;;;5.83;64.54;101980.47;2008790;28;3614824;-74
2023/02/21 05:08:30;;;;;;;;;61.33;48.67;;;;;5.82;64.75;101982.22;2012306;27;3611704;-74
2023/02/21 05:09:41;;;;;;;;;72.20;54.00;;;;;5.81;64.53;101985.69;2001473;28;2876315;-74
2023/02/21 05:10:53;;;;;;;;;70.20;54.40;;;;;5.82;64.66;101986.56;2041321;28;3632513;-74
2023/02/21 05:12:10;;;;;;;;;63.67;51.33;;;;;5.81;64.34;101987.41;2023715;28;3611688;-74
2023/02/21 05:13:22;;;;;;;;;68.67;52.33;;;;;5.80;64.30;101990.91;1998730;28;3624200;-74
2023/02/21 05:14:32;;;;;;;;;63.50;51.00;;;;;5.79;64.58;101987.41;1994039;28;2859624;-74
2023/02/21 05:15:44;;;;;;;;;71.00;56.00;;;;;5.79;64.36;101987.41;2024622;28;3618996;-74
2023/02/21 05:16:56;;;;;;;;;71.00;55.40;;;;;5.79;64.47;101986.53;2017366;28;3600192;-74
2023/02/21 05:18:08;;;;;;;;;69.40;55.60;;;;;5.78;64.75;101984.81;2036667;28;3593934;-74
2023/02/21 05:19:26;;;;;;;;;68.00;52.60;;;;;5.77;64.39;101977.81;2026563;28;2880502;-74
2023/02/21 05:20:36;;;;;;;;;70.50;54.00;;;;;5.75;64.43;101977.81;2024829;28;2877338;-74
2023/02/21 05:21:48;;;;;;;;;70.00;54.33;;;;;5.76;64.81;101978.69;2015525;28;3615819;-74
2023/02/21 05:22:59;;;;;;;;;68.80;52.00;;;;;5.74;64.74;101976.94;1993680;28;2882571;-74
2023/02/21 05:24:11;;;;;;;;;72.80;56.60;;;;;5.74;64.66;101979.56;2034546;28;3616861;-74
2023/02/21 05:25:23;;;;;;;;;72.00;55.33;;;;;5.74;64.75;101978.69;2033242;28;3616927;-74
2023/02/21 05:26:37;;;;;;;;;59.00;49.00;;;;;5.74;64.45;101978.69;2007178;28;3580476;-74
2023/02/21 05:27:51;;;;;;;;;68.00;52.67;;;;;5.72;64.40;101980.41;2031328;27;3629430;-74
2023/02/21 05:29:02;;;;;;;;;68.50;53.00;;;;;5.72;64.38;101975.19;2006717;27;2862773;-74
2023/02/21 05:30:15;;;;;;;;;72.50;56.00;;;;;5.71;64.36;101976.91;1998719;28;2876736;-74
2023/02/21 05:31:26;;;;;;;;;70.00;55.00;;;;;5.71;64.65;101983.84;1994932;28;2869461;-74
2023/02/21 05:32:39;;;;;;;;;70.00;54.00;;;;;5.69;64.71;101969.94;1998688;28;3604354;-74
2023/02/21 05:33:49;;;;;;;;;69.50;54.00;;;;;5.69;64.48;101975.16;1999228;28;2872492;-74
2023/02/21 05:35:02;;;;;;;;;71.60;55.40;;;;;5.68;64.51;101969.06;2020411;28;3615831;-74
2023/02/21 05:36:13;;;;;;;;;71.00;54.33;;;;;5.68;64.70;101974.28;2006408;28;3619011;-74
2023/02/21 05:37:25;;;;;;;;;66.67;51.00;;;;;5.69;64.38;101972.53;2016217;27;3609601;-73
2023/02/21 05:38:47;;;;;;;;;68.80;52.80;;;;;5.67;64.50;101966.44;2001475;28;2879467;-74
2023/02/21 05:39:58;;;;;;;;;71.50;56.00;;;;;5.66;64.54;101967.28;2023787;28;2870044;-73
2023/02/21 05:41:10;;;;;;;;;73.67;56.67;;;;;5.66;64.68;101964.69;2009194;27;3618969;-72
2023/02/21 05:42:22;;;;;;;;;70.40;54.00;;;;;5.65;64.54;101962.97;2020060;28;3616869;-73
2023/02/21 05:43:34;;;;;;;;;66.33;51.67;;;;;5.65;64.59;101965.56;2014898;28;3630443;-73
2023/02/21 05:44:47;;;;;;;;;69.40;52.60;;;;;5.63;64.62;101960.31;2008147;28;3631437;-73
2023/02/21 05:45:58;;;;;;;;;64.33;51.67;;;;;5.63;64.68;101966.41;1995184;28;3613767;-73
2023/02/21 05:47:11;;;;;;;;;68.00;53.33;;;;;5.61;64.77;101957.72;2015039;27;3615897;-73
2023/02/21 05:48:22;;;;;;;;;67.67;52.67;;;;;5.61;64.52;101960.31;1992563;28;3621075;-73
2023/02/21 05:49:34;;;;;;;;;71.00;55.67;;;;;5.61;64.69;101956.81;2006682;27;3626271;-73
2023/02/21 05:50:48;;;;;;;;;71.75;53.38;;;;;5.60;64.64;101955.97;2017466;28;3646095;-73
2023/02/21 05:52:00;;;;;;;;;66.00;53.33;;;;;5.59;64.89;101956.81;2014896;27;3587750;-73
2023/02/21 05:53:12;;;;;;;;;66.00;52.00;;;;;5.60;64.75;101949.88;2032596;27;3629774;-73
2023/02/21 05:54:24;;;;;;;;;69.20;54.80;;;;;5.59;64.89;101951.59;2017195;28;3623123;-73
2023/02/21 05:55:36;;;;;;;;;71.33;55.00;;;;;5.57;64.26;101950.72;2014525;27;3626244;-73
2023/02/21 05:56:50;;;;;;;;;71.33;55.33;;;;;5.58;64.88;101952.47;2005740;28;3610641;-73
2023/02/21 05:58:02;;;;;;;;;76.67;56.33;;;;;5.57;64.36;101950.72;1997336;28;3651267;-73
2023/02/21 05:59:17;;;;;;;;;69.00;51.67;;;;;5.57;64.92;101949.84;2014379;27;3629431;-73
2023/02/21 06:00:29;;;;;;;;;70.50;56.00;;;;;5.57;64.87;101948.13;1997022;28;2874214;-73
2023/02/21 06:01:40;;;;;;;;;77.00;57.00;;;;;5.56;64.75;101946.38;1997065;28;2899373;-73
2023/02/21 06:02:53;;;;;;;;;75.00;56.00;;;;;5.56;64.49;101946.38;2001208;28;3637725;-73
2023/02/21 06:04:06;;;;;;;;;61.33;49.67;;;;;5.56;64.38;101942.88;1996329;27;3602323;-73
2023/02/21 06:05:19;;;;;;;;;63.33;51.33;;;;;5.56;64.74;101948.97;2020408;28;3598151;-74
2023/02/21 06:06:29;;;;;;;;;70.00;56.00;;;;;5.55;64.56;101946.38;1995542;28;2857568;-73
2023/02/21 06:07:41;;;;;;;;;70.40;55.00;;;;;5.55;64.40;101944.63;2039781;28;3623155;-73
2023/02/21 06:08:53;;;;;;;;;66.20;51.80;;;;;5.54;64.64;101942.00;2030096;28;3615840;-73
2023/02/21 06:10:05;;;;;;;;;69.67;56.00;;;;;5.53;64.64;101943.75;2013763;28;3613831;-73
2023/02/21 06:11:23;;;;;;;;;63.00;52.67;;;;;5.52;64.75;101939.38;2016639;27;3610714;-73
2023/02/21 06:12:35;;;;;;;;;67.00;52.33;;;;;5.52;64.52;101942.00;1993834;28;3600222;-73
2023/02/21 06:13:50;;;;;;;;;65.33;52.00;;;;;5.50;64.59;101944.59;2003471;27;3616914;-73
2023/02/21 06:15:06;;;;;;;;;69.00;54.33;;;;;5.52;64.53;101939.38;1998447;28;3597468;-73
2023/02/21 06:16:17;;;;;;;;;67.00;52.00;;;;;5.50;64.35;101935.91;2016425;28;3621068;-73
2023/02/21 06:17:29;;;;;;;;;70.20;56.00;;;;;5.50;64.87;101943.72;2019354;27;3608565;-73
2023/02/21 06:18:42;;;;;;;;;67.43;53.29;;;;;5.49;64.31;101944.56;2016014;28;3613780;-73
2023/02/21 06:19:55;;;;;;;;;69.40;55.40;;;;;5.48;64.64;101941.09;2014652;27;3625607;-73
2023/02/21 06:21:07;;;;;;;;;72.00;54.00;;;;;5.49;64.99;101941.97;1996526;28;3634600;-73
2023/02/21 06:22:19;;;;;;;;;73.60;56.60;;;;;5.47;64.77;101936.75;2019452;28;3611661;-73
2023/02/21 06:23:31;;;;;;;;;76.00;58.67;;;;;5.47;64.90;101933.25;2014172;28;3635709;-73
2023/02/21 06:24:45;;;;;;;;;80.13;64.13;;;;;5.46;64.42;101934.09;2016142;27;3640822;-73
2023/02/21 06:25:57;;;;;;;;;81.67;61.00;;;;;5.45;64.72;101935.88;2008118;28;3634608;-73
2023/02/21 06:27:09;;;;;;;;;82.20;65.60;;;;;5.44;64.71;101931.50;2018528;28;3661655;-73
2023/02/21 06:28:25;;;;;;;;;80.20;60.20;;;;;5.44;64.59;101928.00;2020522;28;3659580;-73
2023/02/21 06:29:37;;;;;;;;;70.00;56.00;;;;;5.44;64.88;101928.00;1999729;28;3599181;-73
2023/02/21 06:30:49;;;;;;;;;73.40;56.20;;;;;5.44;64.57;101917.56;2041252;27;3628327;-73
2023/02/21 06:32:00;;;;;;;;;70.80;56.60;;;;;5.44;64.68;101920.19;2003192;28;2874182;-73
2023/02/21 06:33:12;;;;;;;;;75.20;59.00;;;;;5.42;64.75;101914.97;2037740;28;3618007;-73
2023/02/21 06:34:24;;;;;;;;;72.20;55.40;;;;;5.43;64.91;101915.84;2043547;27;3633557;-73
2023/02/21 06:35:36;;;;;;;;;74.00;56.00;;;;;5.42;64.60;101914.09;1998809;28;3631503;-73
2023/02/21 06:36:52;;;;;;;;;71.00;55.20;;;;;5.42;64.57;101909.75;2010816;28;3607510;-73
2023/02/21 06:38:03;;;;;;;;;74.00;58.00;;;;;5.40;65.00;101907.16;1999732;28;2864871;-73
2023/02/21 06:39:15;;;;;;;;;70.00;54.80;;;;;5.40;64.53;101908.88;2018104;27;3619978;-73
2023/02/21 06:40:27;;;;;;;;;75.20;58.60;;;;;5.40;64.58;101909.75;2044947;28;3610612;-73
2023/02/21 06:41:39;;;;;;;;;73.80;57.80;;;;;5.39;64.37;101918.44;2019735;28;3638750;-73
2023/02/21 06:42:51;;;;;;;;;79.20;59.60;;;;;5.38;65.05;101906.25;2013787;28;3657506;-73
2023/02/21 06:44:03;;;;;;;;;77.00;59.00;;;;;5.39;65.13;101909.72;2020503;28;3633546;-73
2023/02/21 06:45:15;;;;;;;;;79.00;60.40;;;;;5.38;64.84;101905.38;2011123;28;3646046;-73
2023/02/21 06:46:29;;;;;;;;;75.33;56.33;;;;;5.37;64.86;101904.50;2013585;28;3633544;-73
2023/02/21 06:47:40;;;;;;;;;78.00;58.67;;;;;5.37;65.08;101904.50;1998301;28;3635686;-73
2023/02/21 06:48:52;;;;;;;;;77.33;59.00;;;;;5.36;64.70;101909.72;2016475;27;3628386;-73
2023/02/21 06:50:05;;;;;;;;;77.33;59.67;;;;;5.35;64.67;101907.97;2011358;28;3639861;-73
2023/02/21 06:51:16;;;;;;;;;76.00;59.50;;;;;5.36;64.56;101905.34;2000175;28;2867278;-73
2023/02/21 06:52:29;;;;;;;;;72.00;56.67;;;;;5.35;64.97;101901.03;2001370;27;3614781;-73
2023/02/21 06:53:41;;;;;;;;;75.00;57.00;;;;;5.35;64.73;101897.53;1998998;27;2879448;-73
2023/02/21 06:54:53;;;;;;;;;73.33;56.33;;;;;5.36;64.67;101900.13;1997036;28;3629423;-74
2023/02/21 06:56:05;;;;;;;;;75.00;57.00;;;;;5.36;64.46;101896.69;2015624;28;3615923;-74
2023/02/21 06:57:16;;;;;;;;;71.00;57.00;;;;;5.36;64.77;101896.69;1999538;28;2865878;-73
2023/02/21 06:58:28;;;;;;;;;75.67;59.33;;;;;5.35;64.66;101893.19;2036591;27;3611684;-74
2023/02/21 06:59:40;;;;;;;;;67.40;53.60;;;;;5.35;64.86;101900.13;2019934;28;3620360;-74
2023/02/21 07:00:52;;;;;;;;;71.60;55.80;;;;;5.34;65.08;101894.03;2014243;28;3624198;-73
2023/02/21 07:02:04;;;;;;;;;70.67;55.00;;;;;5.35;64.86;101897.53;2010622;27;3621052;-74
2023/02/21 07:03:16;;;;;;;;;75.20;57.80;;;;;5.34;64.81;101893.16;1998838;28;3615192;-74
2023/02/21 07:04:28;;;;;;;;;75.20;57.20;;;;;5.34;64.98;101896.66;2015013;28;3621780;-74
2023/02/21 07:05:39;;;;;;;;;79.40;61.80;;;;;5.35;64.96;101897.53;2000823;28;2883638;-73
2023/02/21 07:06:52;;;;;;;;;79.00;61.00;;;;;5.34;64.47;101901.00;2031277;28;3649270;-73
2023/02/21 07:08:04;;;;;;;;;79.67;65.33;;;;;5.34;64.94;101895.78;2020454;28;3635687;-73
2023/02/21 07:09:14;;;;;;;;;75.00;56.00;;;;;5.34;65.01;101896.66;2000703;28;2891247;-73
2023/02/21 07:10:29;;;;;;;;;78.75;61.63;;;;;5.34;64.96;101891.44;2014936;28;3646081;-73
2023/02/21 07:11:41;;;;;;;;;79.00;59.33;;;;;5.33;65.11;101892.31;1997697;28;3656497;-73
2023/02/21 07:12:53;;;;;;;;;75.67;58.67;;;;;5.34;64.79;101891.44;2010620;28;3622147;-74
2023/02/21 07:14:05;;;;;;;;;69.00;53.00;;;;;5.34;65.63;101893.16;2007482;28;3606529;-73
2023/02/21 07:15:16;;;;;;;;;71.33;56.00;;;;;5.34;64.87;101896.66;2003783;27;3631512;-73
2023/02/21 07:16:28;;;;;;;;;81.00;63.00;;;;;5.34;65.08;101899.25;2016915;27;3639880;-73
2023/02/21 07:17:40;;;;;;;;;76.33;57.00;;;;;5.34;65.16;101901.88;2016591;27;3638763;-73
2023/02/21 07:18:53;;;;;;;;;71.00;56.33;;;;;5.34;65.02;101899.25;2014384;27;3621090;-73
2023/02/21 07:20:05;;;;;;;;;78.00;64.00;;;;;5.34;65.10;101899.25;2005498;28;3628401;-73
2023/02/21 07:21:17;;;;;;;;;85.00;67.00;;;;;5.35;65.29;101902.75;1999530;28;2570137;-73
2023/02/21 07:22:28;;;;;;;;;75.00;61.00;;;;;5.35;65.26;101906.25;2000376;28;3600584;-73
2023/02/21 07:23:43;;;;;;;;;76.33;59.67;;;;;5.36;65.43;101907.13;2014492;27;3628339;-73
2023/02/21 07:24:55;;;;;;;;;75.60;59.00;;;;;5.36;65.21;101904.50;2017665;28;3631518;-73
2023/02/21 07:26:10;;;;;;;;;80.63;60.00;;;;;5.36;65.27;101905.34;2017928;28;3654388;-73
2023/02/21 07:27:22;;;;;;;;;76.33;57.67;;;;;5.37;65.43;101907.13;2000894;27;3631492;-73
2023/02/21 07:28:34;;;;;;;;;77.67;60.00;;;;;5.37;65.36;101907.13;2008155;27;3637737;-73
2023/02/21 07:29:49;;;;;;;;;70.40;54.80;;;;;5.39;65.36;101901.91;2004669;27;2875727;-73
2023/02/21 07:31:00;;;;;;;;;71.67;55.33;;;;;5.39;65.11;101900.16;2024154;27;3628369;-73
2023/02/21 07:32:13;;;;;;;;;78.67;59.67;;;;;5.40;65.38;101914.97;2013593;28;3639833;-73
2023/02/21 07:33:25;;;;;;;;;78.00;59.67;;;;;5.39;65.30;101902.78;2000041;28;3635669;-73
2023/02/21 07:34:38;;;;;;;;;79.75;64.75;;;;;5.39;65.68;101900.16;2017573;27;3653330;-73
2023/02/21 07:35:49;;;;;;;;;77.80;62.00;;;;;5.42;65.56;101904.53;2003195;27;2881463;-74
2023/02/21 07:37:02;;;;;;;;;75.67;57.00;;;;;5.43;65.11;101895.00;2034365;28;3624176;-75
2023/02/21 07:38:20;;;;;;;;;79.67;62.00;;;;;5.44;65.65;101904.53;2008748;28;3646087;-74
2023/02/21 07:39:32;;;;;;;;;73.00;56.00;;;;;5.44;65.65;101894.09;2000521;28;3633571;-74
2023/02/21 07:40:44;;;;;;;;;76.40;57.00;;;;;5.44;65.67;101896.72;2017198;27;3663751;-74
2023/02/21 07:41:58;;;;;;;;;76.63;60.13;;;;;5.45;66.07;101898.47;2011426;27;3638791;-74
2023/02/21 07:43:09;;;;;;;;;75.67;60.67;;;;;5.47;65.05;101894.13;2024573;27;3625281;-74
2023/02/21 07:44:21;;;;;;;;;79.00;62.33;;;;;5.48;65.48;101898.50;2010488;28;3632538;-74
2023/02/21 07:45:33;;;;;;;;;74.20;58.40;;;;;5.49;66.20;101895.03;2022852;27;3618949;-74
2023/02/21 07:46:46;;;;;;;;;69.67;53.33;;;;;5.48;65.52;101894.13;2016710;28;3606508;-74
2023/02/21 07:47:57;;;;;;;;;74.67;60.00;;;;;5.50;65.96;101891.56;2023114;28;3621060;-74
2023/02/21 07:49:09;;;;;;;;;77.00;61.40;;;;;5.50;65.74;101891.56;2019222;28;3636660;-74
2023/02/21 07:50:22;;;;;;;;;75.80;58.80;;;;;5.52;65.77;101900.25;2021257;28;3643962;-74
2023/02/21 07:51:33;;;;;;;;;76.00;59.00;;;;;5.53;65.67;101893.31;2002200;27;2880433;-74